sensor_id;sensor_type;location;lat;lon;timestamp;P1;durP1;ratioP1;P2;durP2;ratioP2
2123;SDS011;1068;52.460;13.528;2022-09-16T00:00:56;2.17;;;1.10;;
2123;SDS011;1068;52.460;13.528;2022-09-16T00:03:23;1.50;;;1.10;;
2123;SDS011;1068;52.460;13.528;2022-09-16T00:05:51;1.50;;;1.00;;
2123;SDS011;1068;52.460;13.528;2022-09-16T00:08:18;3.93;;;1.20;;
2123;SDS011;1068;52.460;13.528;2022-09-16T00:10:46;1.53;;;1.17;;
2123;SDS011;1068;52.460;13.528;2022-09-16T00:13:14;3.00;;;1.20;;
2123;SDS011;1068;52.460;13.528;2022-09-16T00:15:42;2.13;;;1.13;;
2123;SDS011;1068;52.460;13.528;2022-09-16T00:18:09;4.23;;;0.90;;
2123;SDS011;1068;52.460;13.528;2022-09-16T00:20:36;4.73;;;1.23;;
2123;SDS011;1068;52.460;13.528;2022-09-16T00:23:03;2.53;;;1.10;;
2123;SDS011;1068;52.460;13.528;2022-09-16T00:25:31;3.03;;;1.10;;
2123;SDS011;1068;52.460;13.528;2022-09-16T00:27:59;2.03;;;0.90;;
2123;SDS011;1068;52.460;13.528;2022-09-16T00:30:26;1.27;;;0.90;;
2123;SDS011;1068;52.460;13.528;2022-09-16T00:32:53;1.20;;;0.83;;
2123;SDS011;1068;52.460;13.528;2022-09-16T00:35:20;3.90;;;1.30;;
2123;SDS011;1068;52.460;13.528;2022-09-16T00:37:47;2.13;;;1.10;;
2123;SDS011;1068;52.460;13.528;2022-09-16T00:40:14;1.57;;;1.00;;
2123;SDS011;1068;52.460;13.528;2022-09-16T00:42:41;3.53;;;1.10;;
2123;SDS011;1068;52.460;13.528;2022-09-16T00:45:13;1.73;;;0.80;;
2123;SDS011;1068;52.460;13.528;2022-09-16T00:47:42;3.87;;;1.03;;
2123;SDS011;1068;52.460;13.528;2022-09-16T00:50:11;1.80;;;1.20;;
2123;SDS011;1068;52.460;13.528;2022-09-16T00:52:39;3.63;;;0.80;;
2123;SDS011;1068;52.460;13.528;2022-09-16T00:55:07;1.03;;;0.90;;
2123;SDS011;1068;52.460;13.528;2022-09-16T00:57:35;1.57;;;1.23;;
2123;SDS011;1068;52.460;13.528;2022-09-16T01:00:03;2.07;;;1.47;;
2123;SDS011;1068;52.460;13.528;2022-09-16T01:02:33;1.70;;;1.10;;
2123;SDS011;1068;52.460;13.528;2022-09-16T01:05:01;2.23;;;1.40;;
2123;SDS011;1068;52.460;13.528;2022-09-16T01:07:30;0.83;;;0.83;;
2123;SDS011;1068;52.460;13.528;2022-09-16T01:09:58;3.30;;;1.10;;
2123;SDS011;1068;52.460;13.528;2022-09-16T01:12:25;1.73;;;0.90;;
2123;SDS011;1068;52.460;13.528;2022-09-16T01:14:53;1.70;;;1.10;;
2123;SDS011;1068;52.460;13.528;2022-09-16T01:17:26;2.10;;;1.00;;
2123;SDS011;1068;52.460;13.528;2022-09-16T01:20:05;1.33;;;0.80;;
2123;SDS011;1068;52.460;13.528;2022-09-16T01:22:41;2.57;;;1.50;;
2123;SDS011;1068;52.460;13.528;2022-09-16T01:25:14;2.03;;;1.00;;
2123;SDS011;1068;52.460;13.528;2022-09-16T01:30:47;1.27;;;1.00;;
2123;SDS011;1068;52.460;13.528;2022-09-16T01:33:22;2.47;;;1.10;;
2123;SDS011;1068;52.460;13.528;2022-09-16T01:35:57;1.73;;;1.10;;
2123;SDS011;1068;52.460;13.528;2022-09-16T01:38:29;1.53;;;0.90;;
2123;SDS011;1068;52.460;13.528;2022-09-16T01:41:02;1.57;;;0.80;;
2123;SDS011;1068;52.460;13.528;2022-09-16T01:43:31;2.40;;;0.83;;
2123;SDS011;1068;52.460;13.528;2022-09-16T01:46:04;1.93;;;1.10;;
2123;SDS011;1068;52.460;13.528;2022-09-16T01:48:33;2.70;;;0.90;;
2123;SDS011;1068;52.460;13.528;2022-09-16T01:51:01;2.07;;;0.90;;
2123;SDS011;1068;52.460;13.528;2022-09-16T01:53:31;2.13;;;1.10;;
2123;SDS011;1068;52.460;13.528;2022-09-16T01:55:59;3.70;;;1.30;;
2123;SDS011;1068;52.460;13.528;2022-09-16T01:58:30;1.53;;;1.00;;
2123;SDS011;1068;52.460;13.528;2022-09-16T02:01:00;1.27;;;1.00;;
2123;SDS011;1068;52.460;13.528;2022-09-16T02:03:31;2.43;;;1.10;;
2123;SDS011;1068;52.460;13.528;2022-09-16T02:06:00;3.90;;;2.33;;
2123;SDS011;1068;52.460;13.528;2022-09-16T02:08:30;2.30;;;1.20;;
2123;SDS011;1068;52.460;13.528;2022-09-16T02:10:58;1.33;;;1.10;;
2123;SDS011;1068;52.460;13.528;2022-09-16T02:13:27;3.43;;;1.10;;
2123;SDS011;1068;52.460;13.528;2022-09-16T02:15:57;1.33;;;1.20;;
2123;SDS011;1068;52.460;13.528;2022-09-16T02:18:26;2.87;;;1.37;;
2123;SDS011;1068;52.460;13.528;2022-09-16T02:20:56;1.40;;;0.93;;
2123;SDS011;1068;52.460;13.528;2022-09-16T02:23:24;1.63;;;1.20;;
2123;SDS011;1068;52.460;13.528;2022-09-16T02:25:51;2.37;;;1.23;;
2123;SDS011;1068;52.460;13.528;2022-09-16T02:28:21;2.67;;;1.30;;
2123;SDS011;1068;52.460;13.528;2022-09-16T02:30:50;1.57;;;1.47;;
2123;SDS011;1068;52.460;13.528;2022-09-16T02:33:18;1.60;;;1.50;;
2123;SDS011;1068;52.460;13.528;2022-09-16T02:35:46;5.97;;;1.40;;
2123;SDS011;1068;52.460;13.528;2022-09-16T02:38:16;3.10;;;1.60;;
2123;SDS011;1068;52.460;13.528;2022-09-16T02:40:46;2.50;;;1.07;;
2123;SDS011;1068;52.460;13.528;2022-09-16T02:43:14;2.57;;;1.17;;
2123;SDS011;1068;52.460;13.528;2022-09-16T02:45:44;3.13;;;1.57;;
2123;SDS011;1068;52.460;13.528;2022-09-16T02:48:12;3.03;;;1.47;;
2123;SDS011;1068;52.460;13.528;2022-09-16T02:50:43;1.97;;;1.47;;
2123;SDS011;1068;52.460;13.528;2022-09-16T02:53:14;1.90;;;1.40;;
2123;SDS011;1068;52.460;13.528;2022-09-16T02:55:48;7.27;;;1.50;;
2123;SDS011;1068;52.460;13.528;2022-09-16T02:58:17;3.53;;;1.63;;
2123;SDS011;1068;52.460;13.528;2022-09-16T03:00:44;4.10;;;1.50;;
2123;SDS011;1068;52.460;13.528;2022-09-16T03:03:12;1.70;;;1.40;;
2123;SDS011;1068;52.460;13.528;2022-09-16T03:05:48;4.00;;;1.47;;
2123;SDS011;1068;52.460;13.528;2022-09-16T03:08:23;2.80;;;1.60;;
2123;SDS011;1068;52.460;13.528;2022-09-16T03:10:51;1.47;;;1.37;;
2123;SDS011;1068;52.460;13.528;2022-09-16T03:13:20;3.43;;;1.53;;
2123;SDS011;1068;52.460;13.528;2022-09-16T03:15:51;2.80;;;1.93;;
2123;SDS011;1068;52.460;13.528;2022-09-16T03:18:25;2.27;;;1.50;;
2123;SDS011;1068;52.460;13.528;2022-09-16T03:20:55;5.90;;;1.50;;
2123;SDS011;1068;52.460;13.528;2022-09-16T03:23:26;4.50;;;1.90;;
2123;SDS011;1068;52.460;13.528;2022-09-16T03:26:01;2.73;;;1.80;;
2123;SDS011;1068;52.460;13.528;2022-09-16T03:28:34;3.83;;;2.03;;
2123;SDS011;1068;52.460;13.528;2022-09-16T03:31:03;3.40;;;1.67;;
2123;SDS011;1068;52.460;13.528;2022-09-16T03:33:33;3.07;;;1.60;;
2123;SDS011;1068;52.460;13.528;2022-09-16T03:36:02;3.27;;;2.00;;
2123;SDS011;1068;52.460;13.528;2022-09-16T03:38:31;3.83;;;1.60;;
2123;SDS011;1068;52.460;13.528;2022-09-16T03:41:01;3.43;;;1.90;;
2123;SDS011;1068;52.460;13.528;2022-09-16T03:43:29;3.50;;;1.40;;
2123;SDS011;1068;52.460;13.528;2022-09-16T03:45:56;3.77;;;1.50;;
2123;SDS011;1068;52.460;13.528;2022-09-16T03:48:23;6.03;;;1.80;;
2123;SDS011;1068;52.460;13.528;2022-09-16T03:50:51;3.40;;;1.80;;
2123;SDS011;1068;52.460;13.528;2022-09-16T03:53:18;2.77;;;1.70;;
2123;SDS011;1068;52.460;13.528;2022-09-16T03:55:47;3.90;;;1.60;;
2123;SDS011;1068;52.460;13.528;2022-09-16T03:58:15;6.00;;;1.93;;
2123;SDS011;1068;52.460;13.528;2022-09-16T04:00:42;2.83;;;1.50;;
2123;SDS011;1068;52.460;13.528;2022-09-16T04:03:09;4.00;;;2.40;;
2123;SDS011;1068;52.460;13.528;2022-09-16T04:05:36;5.80;;;2.10;;
2123;SDS011;1068;52.460;13.528;2022-09-16T04:08:03;2.83;;;2.00;;
2123;SDS011;1068;52.460;13.528;2022-09-16T04:10:30;3.40;;;2.00;;
2123;SDS011;1068;52.460;13.528;2022-09-16T04:12:58;5.70;;;2.30;;
2123;SDS011;1068;52.460;13.528;2022-09-16T04:15:27;3.87;;;2.33;;
2123;SDS011;1068;52.460;13.528;2022-09-16T04:17:54;4.43;;;2.03;;
2123;SDS011;1068;52.460;13.528;2022-09-16T04:20:21;2.33;;;1.80;;
2123;SDS011;1068;52.460;13.528;2022-09-16T04:22:48;3.40;;;2.10;;
2123;SDS011;1068;52.460;13.528;2022-09-16T04:25:15;6.63;;;2.03;;
2123;SDS011;1068;52.460;13.528;2022-09-16T04:27:42;4.20;;;2.03;;
2123;SDS011;1068;52.460;13.528;2022-09-16T04:30:10;8.70;;;2.50;;
2123;SDS011;1068;52.460;13.528;2022-09-16T04:32:38;5.93;;;2.87;;
2123;SDS011;1068;52.460;13.528;2022-09-16T04:35:05;3.33;;;1.73;;
2123;SDS011;1068;52.460;13.528;2022-09-16T04:37:32;5.67;;;1.97;;
2123;SDS011;1068;52.460;13.528;2022-09-16T04:39:59;4.37;;;2.80;;
2123;SDS011;1068;52.460;13.528;2022-09-16T04:42:26;3.60;;;2.20;;
2123;SDS011;1068;52.460;13.528;2022-09-16T04:44:53;7.23;;;2.40;;
2123;SDS011;1068;52.460;13.528;2022-09-16T04:47:21;8.30;;;2.60;;
2123;SDS011;1068;52.460;13.528;2022-09-16T04:49:50;2.83;;;2.57;;
2123;SDS011;1068;52.460;13.528;2022-09-16T04:52:16;3.63;;;1.87;;
2123;SDS011;1068;52.460;13.528;2022-09-16T04:54:43;5.10;;;2.60;;
2123;SDS011;1068;52.460;13.528;2022-09-16T04:57:10;3.03;;;2.40;;
2123;SDS011;1068;52.460;13.528;2022-09-16T04:59:37;5.20;;;2.30;;
2123;SDS011;1068;52.460;13.528;2022-09-16T05:02:04;3.93;;;2.07;;
2123;SDS011;1068;52.460;13.528;2022-09-16T05:04:32;5.57;;;2.00;;
2123;SDS011;1068;52.460;13.528;2022-09-16T05:07:00;3.20;;;2.20;;
2123;SDS011;1068;52.460;13.528;2022-09-16T05:09:27;4.37;;;2.10;;
2123;SDS011;1068;52.460;13.528;2022-09-16T05:11:54;6.67;;;2.47;;
2123;SDS011;1068;52.460;13.528;2022-09-16T05:14:21;2.73;;;1.97;;
2123;SDS011;1068;52.460;13.528;2022-09-16T05:16:47;3.40;;;2.23;;
2123;SDS011;1068;52.460;13.528;2022-09-16T05:19:14;2.53;;;2.33;;
2123;SDS011;1068;52.460;13.528;2022-09-16T05:21:41;5.97;;;2.00;;
2123;SDS011;1068;52.460;13.528;2022-09-16T05:24:10;4.80;;;2.10;;
2123;SDS011;1068;52.460;13.528;2022-09-16T05:26:39;2.70;;;2.53;;
2123;SDS011;1068;52.460;13.528;2022-09-16T05:29:07;5.20;;;2.00;;
2123;SDS011;1068;52.460;13.528;2022-09-16T05:31:35;4.00;;;2.27;;
2123;SDS011;1068;52.460;13.528;2022-09-16T05:34:03;3.13;;;1.80;;
2123;SDS011;1068;52.460;13.528;2022-09-16T05:36:31;3.60;;;2.10;;
2123;SDS011;1068;52.460;13.528;2022-09-16T05:38:59;5.10;;;2.10;;
2123;SDS011;1068;52.460;13.528;2022-09-16T05:41:27;2.87;;;1.60;;
2123;SDS011;1068;52.460;13.528;2022-09-16T05:43:56;4.93;;;2.23;;
2123;SDS011;1068;52.460;13.528;2022-09-16T05:46:23;2.80;;;1.70;;
2123;SDS011;1068;52.460;13.528;2022-09-16T05:48:50;3.53;;;1.63;;
2123;SDS011;1068;52.460;13.528;2022-09-16T05:51:18;2.30;;;2.03;;
2123;SDS011;1068;52.460;13.528;2022-09-16T05:53:46;5.97;;;2.10;;
2123;SDS011;1068;52.460;13.528;2022-09-16T05:56:14;2.70;;;1.50;;
2123;SDS011;1068;52.460;13.528;2022-09-16T05:58:43;3.43;;;1.90;;
2123;SDS011;1068;52.460;13.528;2022-09-16T06:01:11;2.60;;;1.60;;
2123;SDS011;1068;52.460;13.528;2022-09-16T06:03:39;3.10;;;1.63;;
2123;SDS011;1068;52.460;13.528;2022-09-16T06:06:09;2.43;;;1.33;;
2123;SDS011;1068;52.460;13.528;2022-09-16T06:08:37;5.83;;;2.30;;
2123;SDS011;1068;52.460;13.528;2022-09-16T06:11:06;4.63;;;1.70;;
2123;SDS011;1068;52.460;13.528;2022-09-16T06:13:33;4.13;;;1.80;;
2123;SDS011;1068;52.460;13.528;2022-09-16T06:16:02;6.93;;;2.60;;
2123;SDS011;1068;52.460;13.528;2022-09-16T06:18:30;2.97;;;1.90;;
2123;SDS011;1068;52.460;13.528;2022-09-16T06:20:57;7.10;;;2.00;;
2123;SDS011;1068;52.460;13.528;2022-09-16T06:23:28;2.33;;;1.80;;
2123;SDS011;1068;52.460;13.528;2022-09-16T06:25:58;3.37;;;1.77;;
2123;SDS011;1068;52.460;13.528;2022-09-16T06:28:25;3.63;;;1.90;;
2123;SDS011;1068;52.460;13.528;2022-09-16T06:30:59;5.13;;;1.63;;
2123;SDS011;1068;52.460;13.528;2022-09-16T06:33:27;3.63;;;2.10;;
2123;SDS011;1068;52.460;13.528;2022-09-16T06:35:54;3.60;;;1.80;;
2123;SDS011;1068;52.460;13.528;2022-09-16T06:38:22;4.40;;;2.27;;
2123;SDS011;1068;52.460;13.528;2022-09-16T06:40:49;9.23;;;2.20;;
2123;SDS011;1068;52.460;13.528;2022-09-16T06:43:16;2.97;;;1.63;;
2123;SDS011;1068;52.460;13.528;2022-09-16T06:45:43;6.13;;;2.17;;
2123;SDS011;1068;52.460;13.528;2022-09-16T06:48:09;5.13;;;2.00;;
2123;SDS011;1068;52.460;13.528;2022-09-16T06:50:38;2.73;;;1.50;;
2123;SDS011;1068;52.460;13.528;2022-09-16T06:53:05;5.00;;;1.97;;
2123;SDS011;1068;52.460;13.528;2022-09-16T06:55:32;2.83;;;2.10;;
2123;SDS011;1068;52.460;13.528;2022-09-16T06:58:00;2.23;;;1.93;;
2123;SDS011;1068;52.460;13.528;2022-09-16T07:00:26;5.43;;;2.00;;
2123;SDS011;1068;52.460;13.528;2022-09-16T07:02:53;1.97;;;1.40;;
2123;SDS011;1068;52.460;13.528;2022-09-16T07:05:20;4.40;;;1.67;;
2123;SDS011;1068;52.460;13.528;2022-09-16T07:07:49;5.47;;;2.17;;
2123;SDS011;1068;52.460;13.528;2022-09-16T07:10:16;3.20;;;1.50;;
2123;SDS011;1068;52.460;13.528;2022-09-16T07:12:43;1.90;;;1.13;;
2123;SDS011;1068;52.460;13.528;2022-09-16T07:15:10;2.87;;;1.63;;
2123;SDS011;1068;52.460;13.528;2022-09-16T07:17:37;4.43;;;1.17;;
2123;SDS011;1068;52.460;13.528;2022-09-16T07:20:04;4.40;;;1.73;;
2123;SDS011;1068;52.460;13.528;2022-09-16T07:22:32;3.60;;;1.50;;
2123;SDS011;1068;52.460;13.528;2022-09-16T07:25:00;2.40;;;1.30;;
2123;SDS011;1068;52.460;13.528;2022-09-16T07:27:27;6.60;;;3.40;;
2123;SDS011;1068;52.460;13.528;2022-09-16T07:29:55;3.93;;;1.50;;
2123;SDS011;1068;52.460;13.528;2022-09-16T07:32:22;1.90;;;1.20;;
2123;SDS011;1068;52.460;13.528;2022-09-16T07:34:49;4.17;;;1.43;;
2123;SDS011;1068;52.460;13.528;2022-09-16T07:37:17;3.53;;;1.90;;
2123;SDS011;1068;52.460;13.528;2022-09-16T07:39:45;4.77;;;1.30;;
2123;SDS011;1068;52.460;13.528;2022-09-16T07:42:15;1.70;;;1.47;;
2123;SDS011;1068;52.460;13.528;2022-09-16T07:44:42;3.63;;;1.30;;
2123;SDS011;1068;52.460;13.528;2022-09-16T07:47:09;3.17;;;1.80;;
2123;SDS011;1068;52.460;13.528;2022-09-16T07:49:36;2.73;;;1.20;;
2123;SDS011;1068;52.460;13.528;2022-09-16T07:52:03;2.27;;;1.40;;
2123;SDS011;1068;52.460;13.528;2022-09-16T07:54:30;4.10;;;1.43;;
2123;SDS011;1068;52.460;13.528;2022-09-16T07:56:57;6.43;;;1.87;;
2123;SDS011;1068;52.460;13.528;2022-09-16T07:59:25;3.23;;;1.20;;
2123;SDS011;1068;52.460;13.528;2022-09-16T08:01:52;2.30;;;1.43;;
2123;SDS011;1068;52.460;13.528;2022-09-16T08:04:19;3.57;;;1.40;;
2123;SDS011;1068;52.460;13.528;2022-09-16T08:06:46;4.70;;;1.50;;
2123;SDS011;1068;52.460;13.528;2022-09-16T08:09:13;2.00;;;1.23;;
2123;SDS011;1068;52.460;13.528;2022-09-16T08:11:40;3.40;;;1.20;;
2123;SDS011;1068;52.460;13.528;2022-09-16T08:14:07;3.80;;;1.30;;
2123;SDS011;1068;52.460;13.528;2022-09-16T08:16:35;2.10;;;0.90;;
2123;SDS011;1068;52.460;13.528;2022-09-16T08:19:02;2.63;;;1.20;;
2123;SDS011;1068;52.460;13.528;2022-09-16T08:21:29;3.00;;;1.10;;
2123;SDS011;1068;52.460;13.528;2022-09-16T08:23:56;1.50;;;1.40;;
2123;SDS011;1068;52.460;13.528;2022-09-16T08:26:23;4.27;;;1.53;;
2123;SDS011;1068;52.460;13.528;2022-09-16T08:28:50;1.30;;;1.10;;
2123;SDS011;1068;52.460;13.528;2022-09-16T08:31:18;4.27;;;1.33;;
2123;SDS011;1068;52.460;13.528;2022-09-16T08:33:46;5.73;;;1.60;;
2123;SDS011;1068;52.460;13.528;2022-09-16T08:36:14;3.83;;;2.07;;
2123;SDS011;1068;52.460;13.528;2022-09-16T08:38:42;2.00;;;1.17;;
2123;SDS011;1068;52.460;13.528;2022-09-16T08:41:22;3.97;;;1.40;;
2123;SDS011;1068;52.460;13.528;2022-09-16T08:43:52;2.10;;;1.27;;
2123;SDS011;1068;52.460;13.528;2022-09-16T08:46:22;1.67;;;1.17;;
2123;SDS011;1068;52.460;13.528;2022-09-16T08:48:58;5.57;;;2.80;;
2123;SDS011;1068;52.460;13.528;2022-09-16T08:51:26;3.83;;;1.40;;
2123;SDS011;1068;52.460;13.528;2022-09-16T08:53:53;2.90;;;1.20;;
2123;SDS011;1068;52.460;13.528;2022-09-16T08:56:23;2.47;;;1.30;;
2123;SDS011;1068;52.460;13.528;2022-09-16T08:58:52;7.07;;;1.47;;
2123;SDS011;1068;52.460;13.528;2022-09-16T09:01:26;6.07;;;1.60;;
2123;SDS011;1068;52.460;13.528;2022-09-16T09:03:55;3.83;;;2.20;;
2123;SDS011;1068;52.460;13.528;2022-09-16T09:06:27;3.60;;;2.00;;
2123;SDS011;1068;52.460;13.528;2022-09-16T09:08:59;5.07;;;2.03;;
2123;SDS011;1068;52.460;13.528;2022-09-16T09:11:30;2.93;;;1.23;;
2123;SDS011;1068;52.460;13.528;2022-09-16T09:14:01;3.10;;;1.07;;
2123;SDS011;1068;52.460;13.528;2022-09-16T09:16:35;2.10;;;1.10;;
2123;SDS011;1068;52.460;13.528;2022-09-16T09:19:07;1.27;;;1.00;;
2123;SDS011;1068;52.460;13.528;2022-09-16T09:21:41;3.50;;;1.30;;
2123;SDS011;1068;52.460;13.528;2022-09-16T09:24:24;2.50;;;1.37;;
2123;SDS011;1068;52.460;13.528;2022-09-16T09:26:54;2.30;;;1.30;;
2123;SDS011;1068;52.460;13.528;2022-09-16T09:29:27;2.60;;;1.00;;
2123;SDS011;1068;52.460;13.528;2022-09-16T09:31:59;3.30;;;1.33;;
2123;SDS011;1068;52.460;13.528;2022-09-16T09:34:31;8.10;;;1.63;;
2123;SDS011;1068;52.460;13.528;2022-09-16T09:37:07;3.00;;;0.90;;
2123;SDS011;1068;52.460;13.528;2022-09-16T09:39:41;1.33;;;1.00;;
2123;SDS011;1068;52.460;13.528;2022-09-16T09:42:11;2.67;;;1.27;;
2123;SDS011;1068;52.460;13.528;2022-09-16T09:44:49;2.10;;;1.20;;
2123;SDS011;1068;52.460;13.528;2022-09-16T09:47:18;4.27;;;1.03;;
2123;SDS011;1068;52.460;13.528;2022-09-16T09:49:48;2.93;;;1.00;;
2123;SDS011;1068;52.460;13.528;2022-09-16T09:52:19;4.53;;;1.00;;
2123;SDS011;1068;52.460;13.528;2022-09-16T09:54:47;3.47;;;1.20;;
2123;SDS011;1068;52.460;13.528;2022-09-16T09:57:17;3.50;;;1.10;;
2123;SDS011;1068;52.460;13.528;2022-09-16T09:59:46;3.17;;;1.60;;
2123;SDS011;1068;52.460;13.528;2022-09-16T10:02:15;3.80;;;1.20;;
2123;SDS011;1068;52.460;13.528;2022-09-16T10:04:43;5.50;;;1.20;;
2123;SDS011;1068;52.460;13.528;2022-09-16T10:07:10;3.43;;;1.53;;
2123;SDS011;1068;52.460;13.528;2022-09-16T10:09:44;3.50;;;1.27;;
2123;SDS011;1068;52.460;13.528;2022-09-16T10:12:12;3.10;;;1.40;;
2123;SDS011;1068;52.460;13.528;2022-09-16T10:14:39;3.70;;;1.27;;
2123;SDS011;1068;52.460;13.528;2022-09-16T10:17:12;2.80;;;1.30;;
2123;SDS011;1068;52.460;13.528;2022-09-16T10:19:47;3.53;;;1.37;;
2123;SDS011;1068;52.460;13.528;2022-09-16T10:22:18;3.53;;;1.57;;
2123;SDS011;1068;52.460;13.528;2022-09-16T10:24:52;2.93;;;1.13;;
2123;SDS011;1068;52.460;13.528;2022-09-16T10:27:20;10.03;;;1.00;;
2123;SDS011;1068;52.460;13.528;2022-09-16T10:29:47;4.67;;;1.47;;
2123;SDS011;1068;52.460;13.528;2022-09-16T10:32:27;1.10;;;0.77;;
2123;SDS011;1068;52.460;13.528;2022-09-16T10:34:55;3.83;;;1.50;;
2123;SDS011;1068;52.460;13.528;2022-09-16T10:37:22;5.17;;;1.00;;
2123;SDS011;1068;52.460;13.528;2022-09-16T10:39:53;2.07;;;0.90;;
2123;SDS011;1068;52.460;13.528;2022-09-16T10:42:21;3.87;;;1.03;;
2123;SDS011;1068;52.460;13.528;2022-09-16T10:44:49;5.30;;;1.20;;
2123;SDS011;1068;52.460;13.528;2022-09-16T10:47:17;2.20;;;1.00;;
2123;SDS011;1068;52.460;13.528;2022-09-16T10:49:46;1.67;;;1.07;;
2123;SDS011;1068;52.460;13.528;2022-09-16T10:52:14;2.13;;;1.10;;
2123;SDS011;1068;52.460;13.528;2022-09-16T10:54:42;3.00;;;1.03;;
2123;SDS011;1068;52.460;13.528;2022-09-16T10:57:24;4.37;;;0.83;;
2123;SDS011;1068;52.460;13.528;2022-09-16T10:59:56;1.87;;;1.10;;
2123;SDS011;1068;52.460;13.528;2022-09-16T11:02:26;3.90;;;0.90;;
2123;SDS011;1068;52.460;13.528;2022-09-16T11:04:56;3.43;;;0.93;;
2123;SDS011;1068;52.460;13.528;2022-09-16T11:07:30;2.20;;;0.90;;
2123;SDS011;1068;52.460;13.528;2022-09-16T11:10:00;2.87;;;1.10;;
2123;SDS011;1068;52.460;13.528;2022-09-16T11:12:37;4.63;;;1.33;;
2123;SDS011;1068;52.460;13.528;2022-09-16T11:15:13;5.07;;;1.00;;
2123;SDS011;1068;52.460;13.528;2022-09-16T11:17:46;2.47;;;1.37;;
2123;SDS011;1068;52.460;13.528;2022-09-16T11:20:26;4.90;;;1.30;;
2123;SDS011;1068;52.460;13.528;2022-09-16T11:22:58;2.70;;;1.43;;
2123;SDS011;1068;52.460;13.528;2022-09-16T11:25:29;2.90;;;1.07;;
2123;SDS011;1068;52.460;13.528;2022-09-16T11:28:02;2.03;;;0.90;;
2123;SDS011;1068;52.460;13.528;2022-09-16T11:30:35;1.63;;;0.90;;
2123;SDS011;1068;52.460;13.528;2022-09-16T11:33:05;1.10;;;0.83;;
2123;SDS011;1068;52.460;13.528;2022-09-16T11:35:46;2.90;;;1.37;;
2123;SDS011;1068;52.460;13.528;2022-09-16T11:38:23;3.20;;;1.00;;
2123;SDS011;1068;52.460;13.528;2022-09-16T11:40:54;3.43;;;0.87;;
2123;SDS011;1068;52.460;13.528;2022-09-16T11:46:15;4.07;;;0.90;;
2123;SDS011;1068;52.460;13.528;2022-09-16T11:48:50;2.10;;;1.00;;
2123;SDS011;1068;52.460;13.528;2022-09-16T11:51:24;2.50;;;1.10;;
2123;SDS011;1068;52.460;13.528;2022-09-16T11:53:57;2.23;;;0.90;;
2123;SDS011;1068;52.460;13.528;2022-09-16T11:56:31;2.90;;;0.90;;
2123;SDS011;1068;52.460;13.528;2022-09-16T11:59:01;4.00;;;1.10;;
2123;SDS011;1068;52.460;13.528;2022-09-16T12:01:34;3.20;;;1.20;;
2123;SDS011;1068;52.460;13.528;2022-09-16T12:04:03;2.10;;;0.97;;
2123;SDS011;1068;52.460;13.528;2022-09-16T12:06:34;2.90;;;0.80;;
2123;SDS011;1068;52.460;13.528;2022-09-16T12:09:03;1.40;;;0.80;;
2123;SDS011;1068;52.460;13.528;2022-09-16T12:11:32;1.67;;;0.80;;
2123;SDS011;1068;52.460;13.528;2022-09-16T12:14:06;2.20;;;1.10;;
2123;SDS011;1068;52.460;13.528;2022-09-16T12:16:37;2.03;;;1.20;;
2123;SDS011;1068;52.460;13.528;2022-09-16T12:19:06;4.80;;;0.90;;
2123;SDS011;1068;52.460;13.528;2022-09-16T12:21:36;3.80;;;1.23;;
2123;SDS011;1068;52.460;13.528;2022-09-16T12:24:12;2.33;;;1.00;;
2123;SDS011;1068;52.460;13.528;2022-09-16T12:26:42;4.60;;;2.80;;
2123;SDS011;1068;52.460;13.528;2022-09-16T12:29:11;4.50;;;0.93;;
2123;SDS011;1068;52.460;13.528;2022-09-16T12:31:43;1.87;;;0.90;;
2123;SDS011;1068;52.460;13.528;2022-09-16T12:34:12;1.40;;;1.00;;
2123;SDS011;1068;52.460;13.528;2022-09-16T12:36:41;4.47;;;0.73;;
2123;SDS011;1068;52.460;13.528;2022-09-16T12:39:09;1.60;;;0.80;;
2123;SDS011;1068;52.460;13.528;2022-09-16T12:44:26;4.20;;;0.90;;
2123;SDS011;1068;52.460;13.528;2022-09-16T12:47:05;3.53;;;1.00;;
2123;SDS011;1068;52.460;13.528;2022-09-16T12:52:35;1.47;;;0.70;;
2123;SDS011;1068;52.460;13.528;2022-09-16T12:55:25;1.23;;;0.97;;
2123;SDS011;1068;52.460;13.528;2022-09-16T12:58:02;2.20;;;0.90;;
2123;SDS011;1068;52.460;13.528;2022-09-16T13:00:35;3.83;;;0.90;;
2123;SDS011;1068;52.460;13.528;2022-09-16T13:03:09;2.87;;;1.00;;
2123;SDS011;1068;52.460;13.528;2022-09-16T13:05:39;2.23;;;0.80;;
2123;SDS011;1068;52.460;13.528;2022-09-16T13:08:16;2.30;;;0.90;;
2123;SDS011;1068;52.460;13.528;2022-09-16T13:10:45;10.73;;;1.37;;
2123;SDS011;1068;52.460;13.528;2022-09-16T13:13:22;1.73;;;0.80;;
2123;SDS011;1068;52.460;13.528;2022-09-16T13:15:53;2.63;;;1.00;;
2123;SDS011;1068;52.460;13.528;2022-09-16T13:18:22;2.00;;;0.80;;
2123;SDS011;1068;52.460;13.528;2022-09-16T13:20:52;3.30;;;1.00;;
2123;SDS011;1068;52.460;13.528;2022-09-16T13:23:22;7.33;;;1.30;;
2123;SDS011;1068;52.460;13.528;2022-09-16T13:25:54;1.57;;;0.90;;
2123;SDS011;1068;52.460;13.528;2022-09-16T13:28:23;1.97;;;1.00;;
2123;SDS011;1068;52.460;13.528;2022-09-16T13:30:52;3.97;;;1.00;;
2123;SDS011;1068;52.460;13.528;2022-09-16T13:33:27;3.43;;;1.00;;
2123;SDS011;1068;52.460;13.528;2022-09-16T13:36:02;1.60;;;1.10;;
2123;SDS011;1068;52.460;13.528;2022-09-16T13:38:36;2.40;;;0.80;;
2123;SDS011;1068;52.460;13.528;2022-09-16T13:41:04;2.23;;;1.37;;
2123;SDS011;1068;52.460;13.528;2022-09-16T13:43:32;3.40;;;1.10;;
2123;SDS011;1068;52.460;13.528;2022-09-16T13:46:00;3.27;;;0.80;;
2123;SDS011;1068;52.460;13.528;2022-09-16T13:48:29;1.70;;;0.70;;
2123;SDS011;1068;52.460;13.528;2022-09-16T13:51:00;4.23;;;1.20;;
2123;SDS011;1068;52.460;13.528;2022-09-16T13:53:32;1.30;;;1.07;;
2123;SDS011;1068;52.460;13.528;2022-09-16T13:56:00;2.67;;;0.90;;
2123;SDS011;1068;52.460;13.528;2022-09-16T13:58:33;2.13;;;1.00;;
2123;SDS011;1068;52.460;13.528;2022-09-16T14:01:03;2.50;;;0.97;;
2123;SDS011;1068;52.460;13.528;2022-09-16T14:03:35;3.20;;;0.90;;
2123;SDS011;1068;52.460;13.528;2022-09-16T14:06:11;2.47;;;1.20;;
2123;SDS011;1068;52.460;13.528;2022-09-16T14:08:41;2.00;;;0.90;;
2123;SDS011;1068;52.460;13.528;2022-09-16T14:11:12;3.50;;;1.00;;
2123;SDS011;1068;52.460;13.528;2022-09-16T14:13:41;2.77;;;1.27;;
2123;SDS011;1068;52.460;13.528;2022-09-16T14:16:11;4.00;;;1.50;;
2123;SDS011;1068;52.460;13.528;2022-09-16T14:18:43;2.80;;;1.20;;
2123;SDS011;1068;52.460;13.528;2022-09-16T14:21:17;3.33;;;1.23;;
2123;SDS011;1068;52.460;13.528;2022-09-16T14:23:44;3.07;;;1.10;;
2123;SDS011;1068;52.460;13.528;2022-09-16T14:26:12;2.23;;;0.97;;
2123;SDS011;1068;52.460;13.528;2022-09-16T14:28:39;2.07;;;0.93;;
2123;SDS011;1068;52.460;13.528;2022-09-16T14:31:08;2.10;;;0.80;;
2123;SDS011;1068;52.460;13.528;2022-09-16T14:33:37;3.10;;;1.53;;
2123;SDS011;1068;52.460;13.528;2022-09-16T14:36:09;1.30;;;0.90;;
2123;SDS011;1068;52.460;13.528;2022-09-16T14:38:39;4.30;;;0.90;;
2123;SDS011;1068;52.460;13.528;2022-09-16T14:41:07;1.30;;;0.80;;
2123;SDS011;1068;52.460;13.528;2022-09-16T14:43:35;1.77;;;0.90;;
2123;SDS011;1068;52.460;13.528;2022-09-16T14:46:04;0.97;;;0.70;;
2123;SDS011;1068;52.460;13.528;2022-09-16T14:48:32;2.87;;;0.70;;
2123;SDS011;1068;52.460;13.528;2022-09-16T14:50:59;3.47;;;0.80;;
2123;SDS011;1068;52.460;13.528;2022-09-16T14:53:29;1.90;;;1.23;;
2123;SDS011;1068;52.460;13.528;2022-09-16T14:55:57;3.20;;;1.00;;
2123;SDS011;1068;52.460;13.528;2022-09-16T14:58:24;2.40;;;0.80;;
2123;SDS011;1068;52.460;13.528;2022-09-16T15:00:53;2.10;;;0.80;;
2123;SDS011;1068;52.460;13.528;2022-09-16T15:03:24;3.13;;;0.90;;
2123;SDS011;1068;52.460;13.528;2022-09-16T15:05:54;3.33;;;0.77;;
2123;SDS011;1068;52.460;13.528;2022-09-16T15:08:23;2.13;;;0.90;;
2123;SDS011;1068;52.460;13.528;2022-09-16T15:10:53;1.90;;;0.90;;
2123;SDS011;1068;52.460;13.528;2022-09-16T15:13:23;14.83;;;1.27;;
2123;SDS011;1068;52.460;13.528;2022-09-16T15:15:51;3.30;;;1.00;;
2123;SDS011;1068;52.460;13.528;2022-09-16T15:18:21;3.80;;;1.10;;
2123;SDS011;1068;52.460;13.528;2022-09-16T15:20:49;1.80;;;0.83;;
2123;SDS011;1068;52.460;13.528;2022-09-16T15:23:18;2.30;;;0.90;;
2123;SDS011;1068;52.460;13.528;2022-09-16T15:25:50;2.40;;;0.93;;